Other Surface Observations
Issued by NWS Great Falls, MT

Home | Current Version | Previous Version | Text Only | Print | Product List | Glossary On
Versions: 1 2 3 4 5 6 7 8 9 10 11 12 13 14 15 16 17 18 19 20 21 22 23 24 25 26 27 28 29 30 31 32 33 34 35 36 37 38 39 40 41 42 43 44 45 46 47 48 49 50
000
SXUS55 KTFX 042153
OSOTFX
AREA AWOS OBSERVATIONS
NATIONAL WEATHER SERVICE GREAT FALLS MT
0350 PM MDT SAT JUL 04 2015

METAR KPWD 042145Z AUTO 01017G23KT 5SM 27/19 A2972 RMK PLENTYWOOD
METAR KPO1 042145Z AUTO 03013G18KT 4SM 32/18 A2969 RMK POPLAR
METAR K1S3 042145Z AUTO 29007KT 10SM 36/11 A2970 RMK FORSYTH
METAR KS71 042145Z AUTO 35008G15KT 10SM 30/12 A2981 RMK CHINOOK
METAR K79S 042145Z AUTO 00000KT 10SM 32/11 A2980 RMK FORT BENTON
METAR K38S 042145Z AUTO 00000KT 1SM 33/02 A2992 RMK A01 VIS 1/2V3 RMK DEER LODGE
METAR K3U3 042145Z AUTO 19005KT 32/03 A2991 RMK ANACONDA
METAR K6S5 042145Z AUTO 19008KT 10SM 33/04 A2981 RMK HAMILTON
METAR KS59 042145Z AUTO 34004KT 10SM 36/06 A2973 RMK LIBBY
METAR K88M 042145Z AUTO 29005KT 10SM 34/06 A2972 RMK EUREKA



USA.gov is the U.S. government's official web portal to all federal, state and local government web resources and services.